sensor_id;sensor_type;location;lat;lon;timestamp;temperature;humidity
62991;DHT22;49084;48.204;16.202;2022-11-20T00:01:24;1.00;99.90
62991;DHT22;49084;48.204;16.202;2022-11-20T00:03:51;1.00;99.90
62991;DHT22;49084;48.204;16.202;2022-11-20T00:06:19;1.00;99.90
62991;DHT22;49084;48.204;16.202;2022-11-20T00:08:46;1.00;99.90
62991;DHT22;49084;48.204;16.202;2022-11-20T00:11:12;1.00;99.90
62991;DHT22;49084;48.204;16.202;2022-11-20T00:13:38;0.90;99.90
62991;DHT22;49084;48.204;16.202;2022-11-20T00:16:07;0.90;99.90
62991;DHT22;49084;48.204;16.202;2022-11-20T00:18:34;0.90;99.90
62991;DHT22;49084;48.204;16.202;2022-11-20T00:23:29;0.90;99.90
62991;DHT22;49084;48.204;16.202;2022-11-20T00:25:55;0.90;99.90
62991;DHT22;49084;48.204;16.202;2022-11-20T00:28:20;0.90;99.90
62991;DHT22;49084;48.204;16.202;2022-11-20T00:30:46;0.90;99.90
62991;DHT22;49084;48.204;16.202;2022-11-20T00:33:11;1.00;99.90
62991;DHT22;49084;48.204;16.202;2022-11-20T00:35:37;1.00;99.90
62991;DHT22;49084;48.204;16.202;2022-11-20T00:38:03;1.10;99.90
62991;DHT22;49084;48.204;16.202;2022-11-20T00:40:29;1.00;99.90
62991;DHT22;49084;48.204;16.202;2022-11-20T00:42:54;1.00;99.90
62991;DHT22;49084;48.204;16.202;2022-11-20T00:45:20;1.10;99.90
62991;DHT22;49084;48.204;16.202;2022-11-20T00:47:45;1.00;99.90
62991;DHT22;49084;48.204;16.202;2022-11-20T00:50:11;1.00;99.90
62991;DHT22;49084;48.204;16.202;2022-11-20T00:52:37;1.00;99.90
62991;DHT22;49084;48.204;16.202;2022-11-20T00:55:03;1.20;99.90
62991;DHT22;49084;48.204;16.202;2022-11-20T00:57:29;1.00;99.90
62991;DHT22;49084;48.204;16.202;2022-11-20T00:59:55;0.90;99.90
62991;DHT22;49084;48.204;16.202;2022-11-20T01:02:21;0.90;99.90
62991;DHT22;49084;48.204;16.202;2022-11-20T01:04:46;1.00;99.90
62991;DHT22;49084;48.204;16.202;2022-11-20T01:07:12;0.90;99.90
62991;DHT22;49084;48.204;16.202;2022-11-20T01:09:37;0.80;99.90
62991;DHT22;49084;48.204;16.202;2022-11-20T01:12:04;0.80;99.90
62991;DHT22;49084;48.204;16.202;2022-11-20T01:14:29;0.80;99.90
62991;DHT22;49084;48.204;16.202;2022-11-20T01:16:55;0.80;99.90
62991;DHT22;49084;48.204;16.202;2022-11-20T01:19:22;0.90;99.90
62991;DHT22;49084;48.204;16.202;2022-11-20T01:21:50;0.90;99.90
62991;DHT22;49084;48.204;16.202;2022-11-20T01:24:18;0.80;99.90
62991;DHT22;49084;48.204;16.202;2022-11-20T01:26:45;0.80;99.90
62991;DHT22;49084;48.204;16.202;2022-11-20T01:29:21;0.80;99.90
62991;DHT22;49084;48.204;16.202;2022-11-20T01:31:47;0.90;99.90
62991;DHT22;49084;48.204;16.202;2022-11-20T01:34:14;0.90;99.90
62991;DHT22;49084;48.204;16.202;2022-11-20T01:36:42;0.90;99.90
62991;DHT22;49084;48.204;16.202;2022-11-20T01:39:15;0.90;99.90
62991;DHT22;49084;48.204;16.202;2022-11-20T01:41:41;0.90;99.90
62991;DHT22;49084;48.204;16.202;2022-11-20T01:47:16;0.90;99.90
62991;DHT22;49084;48.204;16.202;2022-11-20T01:49:53;0.80;99.90
62991;DHT22;49084;48.204;16.202;2022-11-20T01:52:24;0.80;99.90
62991;DHT22;49084;48.204;16.202;2022-11-20T01:54:56;0.90;99.90
62991;DHT22;49084;48.204;16.202;2022-11-20T01:57:25;0.90;99.90
62991;DHT22;49084;48.204;16.202;2022-11-20T02:00:01;0.90;99.90
62991;DHT22;49084;48.204;16.202;2022-11-20T02:02:27;0.90;99.90
62991;DHT22;49084;48.204;16.202;2022-11-20T02:04:54;1.10;99.90
62991;DHT22;49084;48.204;16.202;2022-11-20T02:07:23;1.90;99.90
62991;DHT22;49084;48.204;16.202;2022-11-20T02:09:50;1.00;99.90
62991;DHT22;49084;48.204;16.202;2022-11-20T02:12:15;1.10;99.90
62991;DHT22;49084;48.204;16.202;2022-11-20T02:15:16;0.90;99.90
62991;DHT22;49084;48.204;16.202;2022-11-20T02:17:42;1.00;99.90
62991;DHT22;49084;48.204;16.202;2022-11-20T02:20:08;1.30;99.90
62991;DHT22;49084;48.204;16.202;2022-11-20T02:22:41;0.90;99.90
62991;DHT22;49084;48.204;16.202;2022-11-20T02:25:10;1.20;99.90
62991;DHT22;49084;48.204;16.202;2022-11-20T02:27:36;0.90;99.90
62991;DHT22;49084;48.204;16.202;2022-11-20T02:30:05;1.20;99.90
62991;DHT22;49084;48.204;16.202;2022-11-20T02:32:36;1.80;99.90
62991;DHT22;49084;48.204;16.202;2022-11-20T02:37:45;1.00;99.90
62991;DHT22;49084;48.204;16.202;2022-11-20T02:40:13;1.00;99.90
62991;DHT22;49084;48.204;16.202;2022-11-20T02:42:38;1.00;99.90
62991;DHT22;49084;48.204;16.202;2022-11-20T02:45:05;1.00;99.90
62991;DHT22;49084;48.204;16.202;2022-11-20T02:47:31;1.00;99.90
62991;DHT22;49084;48.204;16.202;2022-11-20T02:49:57;1.10;99.90
62991;DHT22;49084;48.204;16.202;2022-11-20T02:52:23;1.10;99.90
62991;DHT22;49084;48.204;16.202;2022-11-20T02:54:49;1.10;99.90
62991;DHT22;49084;48.204;16.202;2022-11-20T02:57:14;1.30;99.90
62991;DHT22;49084;48.204;16.202;2022-11-20T02:59:40;1.00;99.90
62991;DHT22;49084;48.204;16.202;2022-11-20T03:02:06;1.00;99.90
62991;DHT22;49084;48.204;16.202;2022-11-20T03:04:31;1.00;99.90
62991;DHT22;49084;48.204;16.202;2022-11-20T03:06:57;1.00;99.90
62991;DHT22;49084;48.204;16.202;2022-11-20T03:09:23;1.20;99.90
62991;DHT22;49084;48.204;16.202;2022-11-20T03:11:48;1.00;99.90
62991;DHT22;49084;48.204;16.202;2022-11-20T03:14:14;1.00;99.90
62991;DHT22;49084;48.204;16.202;2022-11-20T03:16:40;1.00;99.90
62991;DHT22;49084;48.204;16.202;2022-11-20T03:19:06;1.00;99.90
62991;DHT22;49084;48.204;16.202;2022-11-20T03:21:33;1.00;99.90
62991;DHT22;49084;48.204;16.202;2022-11-20T03:23:59;1.60;99.90
62991;DHT22;49084;48.204;16.202;2022-11-20T03:26:26;1.00;99.90
62991;DHT22;49084;48.204;16.202;2022-11-20T03:31:21;1.00;99.90
62991;DHT22;49084;48.204;16.202;2022-11-20T03:33:47;1.00;99.90
62991;DHT22;49084;48.204;16.202;2022-11-20T03:36:15;1.10;99.90
62991;DHT22;49084;48.204;16.202;2022-11-20T03:38:42;1.10;99.90
62991;DHT22;49084;48.204;16.202;2022-11-20T03:41:19;1.20;99.90
62991;DHT22;49084;48.204;16.202;2022-11-20T03:43:54;1.00;99.90
62991;DHT22;49084;48.204;16.202;2022-11-20T03:46:21;1.00;99.90
62991;DHT22;49084;48.204;16.202;2022-11-20T03:48:47;1.10;99.90
62991;DHT22;49084;48.204;16.202;2022-11-20T03:51:15;1.10;99.90
62991;DHT22;49084;48.204;16.202;2022-11-20T03:53:43;1.10;99.90
62991;DHT22;49084;48.204;16.202;2022-11-20T03:56:10;1.20;99.90
62991;DHT22;49084;48.204;16.202;2022-11-20T03:58:37;1.20;99.90
62991;DHT22;49084;48.204;16.202;2022-11-20T04:01:12;1.20;99.90
62991;DHT22;49084;48.204;16.202;2022-11-20T04:03:39;1.20;99.90
62991;DHT22;49084;48.204;16.202;2022-11-20T04:06:16;1.20;99.90
62991;DHT22;49084;48.204;16.202;2022-11-20T04:08:42;1.20;99.90
62991;DHT22;49084;48.204;16.202;2022-11-20T04:11:21;1.20;99.90
62991;DHT22;49084;48.204;16.202;2022-11-20T04:13:53;1.30;99.90
62991;DHT22;49084;48.204;16.202;2022-11-20T04:16:19;1.30;99.90
62991;DHT22;49084;48.204;16.202;2022-11-20T04:18:45;1.30;99.90
62991;DHT22;49084;48.204;16.202;2022-11-20T04:21:11;1.20;99.90
62991;DHT22;49084;48.204;16.202;2022-11-20T04:23:37;1.20;99.90
62991;DHT22;49084;48.204;16.202;2022-11-20T04:26:08;1.50;99.90
62991;DHT22;49084;48.204;16.202;2022-11-20T04:28:34;1.20;99.90
62991;DHT22;49084;48.204;16.202;2022-11-20T04:31:15;1.20;99.90
62991;DHT22;49084;48.204;16.202;2022-11-20T04:33:41;1.20;99.90
62991;DHT22;49084;48.204;16.202;2022-11-20T04:36:16;1.10;99.90
62991;DHT22;49084;48.204;16.202;2022-11-20T04:38:43;1.20;99.90
62991;DHT22;49084;48.204;16.202;2022-11-20T04:41:17;1.20;99.90
62991;DHT22;49084;48.204;16.202;2022-11-20T04:43:47;1.20;99.90
62991;DHT22;49084;48.204;16.202;2022-11-20T04:46:14;1.20;99.90
62991;DHT22;49084;48.204;16.202;2022-11-20T04:48:40;1.20;99.90
62991;DHT22;49084;48.204;16.202;2022-11-20T04:51:05;1.20;99.90
62991;DHT22;49084;48.204;16.202;2022-11-20T04:53:32;1.10;99.90
62991;DHT22;49084;48.204;16.202;2022-11-20T04:56:06;1.20;99.90
62991;DHT22;49084;48.204;16.202;2022-11-20T04:58:32;1.10;99.90
62991;DHT22;49084;48.204;16.202;2022-11-20T05:01:03;1.10;99.90
62991;DHT22;49084;48.204;16.202;2022-11-20T05:03:29;1.20;99.90
62991;DHT22;49084;48.204;16.202;2022-11-20T05:05:54;1.20;99.90
62991;DHT22;49084;48.204;16.202;2022-11-20T05:08:20;1.20;99.90
62991;DHT22;49084;48.204;16.202;2022-11-20T05:10:46;1.20;99.90
62991;DHT22;49084;48.204;16.202;2022-11-20T05:13:11;1.50;99.90
62991;DHT22;49084;48.204;16.202;2022-11-20T05:15:37;1.20;99.90
62991;DHT22;49084;48.204;16.202;2022-11-20T05:18:03;1.40;99.90
62991;DHT22;49084;48.204;16.202;2022-11-20T05:20:28;1.30;99.90
62991;DHT22;49084;48.204;16.202;2022-11-20T05:22:57;1.30;99.90
62991;DHT22;49084;48.204;16.202;2022-11-20T05:25:22;1.30;99.90
62991;DHT22;49084;48.204;16.202;2022-11-20T05:27:48;1.30;99.90
62991;DHT22;49084;48.204;16.202;2022-11-20T05:30:14;1.30;99.90
62991;DHT22;49084;48.204;16.202;2022-11-20T05:32:40;1.30;99.90
62991;DHT22;49084;48.204;16.202;2022-11-20T05:35:06;1.30;99.90
62991;DHT22;49084;48.204;16.202;2022-11-20T05:37:31;1.30;99.90
62991;DHT22;49084;48.204;16.202;2022-11-20T05:39:57;1.30;99.90
62991;DHT22;49084;48.204;16.202;2022-11-20T05:42:23;1.20;99.90
62991;DHT22;49084;48.204;16.202;2022-11-20T05:45:02;1.90;99.90
62991;DHT22;49084;48.204;16.202;2022-11-20T05:47:32;1.20;99.90
62991;DHT22;49084;48.204;16.202;2022-11-20T05:49:58;1.20;99.90
62991;DHT22;49084;48.204;16.202;2022-11-20T05:52:23;1.10;99.90
62991;DHT22;49084;48.204;16.202;2022-11-20T05:54:49;1.20;99.90
62991;DHT22;49084;48.204;16.202;2022-11-20T05:57:15;1.20;99.90
62991;DHT22;49084;48.204;16.202;2022-11-20T05:59:41;1.30;99.90
62991;DHT22;49084;48.204;16.202;2022-11-20T06:02:07;1.20;99.90
62991;DHT22;49084;48.204;16.202;2022-11-20T06:04:32;2.60;99.90
62991;DHT22;49084;48.204;16.202;2022-11-20T06:06:58;1.30;99.90
62991;DHT22;49084;48.204;16.202;2022-11-20T06:09:23;1.20;99.90
62991;DHT22;49084;48.204;16.202;2022-11-20T06:11:49;1.30;99.90
62991;DHT22;49084;48.204;16.202;2022-11-20T06:14:15;1.40;99.90
62991;DHT22;49084;48.204;16.202;2022-11-20T06:16:40;1.60;99.90
62991;DHT22;49084;48.204;16.202;2022-11-20T06:19:06;1.20;99.90
62991;DHT22;49084;48.204;16.202;2022-11-20T06:21:31;1.10;99.90
62991;DHT22;49084;48.204;16.202;2022-11-20T06:23:57;1.10;99.90
62991;DHT22;49084;48.204;16.202;2022-11-20T06:26:24;1.90;99.90
62991;DHT22;49084;48.204;16.202;2022-11-20T06:28:51;1.20;99.90
62991;DHT22;49084;48.204;16.202;2022-11-20T06:31:20;0.80;99.90
62991;DHT22;49084;48.204;16.202;2022-11-20T06:33:46;0.80;99.90
62991;DHT22;49084;48.204;16.202;2022-11-20T06:36:14;1.00;99.90
62991;DHT22;49084;48.204;16.202;2022-11-20T06:38:40;0.70;99.90
62991;DHT22;49084;48.204;16.202;2022-11-20T06:41:10;0.70;99.90
62991;DHT22;49084;48.204;16.202;2022-11-20T06:43:36;0.80;99.90
62991;DHT22;49084;48.204;16.202;2022-11-20T06:46:01;0.70;99.90
62991;DHT22;49084;48.204;16.202;2022-11-20T06:48:28;0.80;99.90
62991;DHT22;49084;48.204;16.202;2022-11-20T06:50:54;0.80;99.90
62991;DHT22;49084;48.204;16.202;2022-11-20T06:53:19;0.70;99.90
62991;DHT22;49084;48.204;16.202;2022-11-20T06:55:46;1.10;99.90
62991;DHT22;49084;48.204;16.202;2022-11-20T06:58:13;0.80;99.90
62991;DHT22;49084;48.204;16.202;2022-11-20T07:00:39;0.90;99.90
62991;DHT22;49084;48.204;16.202;2022-11-20T07:03:06;1.10;99.90
62991;DHT22;49084;48.204;16.202;2022-11-20T07:08:52;0.90;99.90
62991;DHT22;49084;48.204;16.202;2022-11-20T07:13:44;0.90;99.90
62991;DHT22;49084;48.204;16.202;2022-11-20T07:16:10;0.90;99.90
62991;DHT22;49084;48.204;16.202;2022-11-20T07:32:35;1.00;99.90
62991;DHT22;49084;48.204;16.202;2022-11-20T07:38:22;1.00;99.90
62991;DHT22;49084;48.204;16.202;2022-11-20T07:40:47;1.10;99.90
62991;DHT22;49084;48.204;16.202;2022-11-20T07:43:14;1.10;99.90
62991;DHT22;49084;48.204;16.202;2022-11-20T07:45:40;1.20;99.90
62991;DHT22;49084;48.204;16.202;2022-11-20T07:51:40;1.20;99.90
62991;DHT22;49084;48.204;16.202;2022-11-20T08:00:55;1.20;99.90
62991;DHT22;49084;48.204;16.202;2022-11-20T08:03:54;1.20;99.90
62991;DHT22;49084;48.204;16.202;2022-11-20T08:06:20;1.30;99.90
62991;DHT22;49084;48.204;16.202;2022-11-20T08:08:46;1.40;99.90
62991;DHT22;49084;48.204;16.202;2022-11-20T08:11:32;1.40;99.90
62991;DHT22;49084;48.204;16.202;2022-11-20T08:14:17;1.50;99.90
62991;DHT22;49084;48.204;16.202;2022-11-20T08:16:45;1.60;99.90
62991;DHT22;49084;48.204;16.202;2022-11-20T08:24:21;1.80;99.90
62991;DHT22;49084;48.204;16.202;2022-11-20T08:26:47;1.90;99.90
62991;DHT22;49084;48.204;16.202;2022-11-20T08:29:12;2.00;99.90
62991;DHT22;49084;48.204;16.202;2022-11-20T08:31:38;2.10;99.90
62991;DHT22;49084;48.204;16.202;2022-11-20T08:34:04;2.00;99.90
62991;DHT22;49084;48.204;16.202;2022-11-20T08:36:33;1.90;99.90
62991;DHT22;49084;48.204;16.202;2022-11-20T08:38:59;1.90;99.90
62991;DHT22;49084;48.204;16.202;2022-11-20T08:41:24;1.90;99.90
62991;DHT22;49084;48.204;16.202;2022-11-20T08:43:59;1.80;99.90
62991;DHT22;49084;48.204;16.202;2022-11-20T08:46:26;1.70;99.90
62991;DHT22;49084;48.204;16.202;2022-11-20T08:48:52;1.70;99.90
62991;DHT22;49084;48.204;16.202;2022-11-20T08:51:19;1.70;99.90
62991;DHT22;49084;48.204;16.202;2022-11-20T08:53:46;1.70;99.90
62991;DHT22;49084;48.204;16.202;2022-11-20T08:56:13;1.70;99.90
62991;DHT22;49084;48.204;16.202;2022-11-20T08:58:57;1.70;99.90
62991;DHT22;49084;48.204;16.202;2022-11-20T09:12:02;2.00;99.90
62991;DHT22;49084;48.204;16.202;2022-11-20T09:18:00;2.00;99.90
62991;DHT22;49084;48.204;16.202;2022-11-20T09:20:27;2.00;99.90
62991;DHT22;49084;48.204;16.202;2022-11-20T09:22:57;2.10;99.90
62991;DHT22;49084;48.204;16.202;2022-11-20T09:25:23;2.10;99.90
62991;DHT22;49084;48.204;16.202;2022-11-20T09:27:58;2.20;99.90
62991;DHT22;49084;48.204;16.202;2022-11-20T09:30:23;2.20;99.90
62991;DHT22;49084;48.204;16.202;2022-11-20T09:32:49;2.30;99.90
62991;DHT22;49084;48.204;16.202;2022-11-20T09:35:15;2.30;99.90
62991;DHT22;49084;48.204;16.202;2022-11-20T09:37:41;2.30;99.90
62991;DHT22;49084;48.204;16.202;2022-11-20T09:40:24;2.30;99.90
62991;DHT22;49084;48.204;16.202;2022-11-20T09:43:19;2.40;99.90
62991;DHT22;49084;48.204;16.202;2022-11-20T09:53:46;2.60;99.90
62991;DHT22;49084;48.204;16.202;2022-11-20T09:56:16;2.60;99.90
62991;DHT22;49084;48.204;16.202;2022-11-20T09:58:48;2.60;99.90
62991;DHT22;49084;48.204;16.202;2022-11-20T10:01:18;2.60;99.90
62991;DHT22;49084;48.204;16.202;2022-11-20T10:06:17;2.80;99.90
62991;DHT22;49084;48.204;16.202;2022-11-20T10:22:27;3.00;99.90
62991;DHT22;49084;48.204;16.202;2022-11-20T10:25:15;3.10;99.90
62991;DHT22;49084;48.204;16.202;2022-11-20T10:30:25;3.10;99.90
62991;DHT22;49084;48.204;16.202;2022-11-20T10:33:06;3.10;99.90
62991;DHT22;49084;48.204;16.202;2022-11-20T10:35:52;3.10;99.90
62991;DHT22;49084;48.204;16.202;2022-11-20T10:38:21;3.10;99.90
62991;DHT22;49084;48.204;16.202;2022-11-20T10:40:55;3.20;99.90
62991;DHT22;49084;48.204;16.202;2022-11-20T10:43:46;3.40;99.90
62991;DHT22;49084;48.204;16.202;2022-11-20T10:46:22;3.50;99.90
62991;DHT22;49084;48.204;16.202;2022-11-20T10:48:49;3.60;99.90
62991;DHT22;49084;48.204;16.202;2022-11-20T10:54:25;3.90;99.90
62991;DHT22;49084;48.204;16.202;2022-11-20T10:57:00;3.90;99.90
62991;DHT22;49084;48.204;16.202;2022-11-20T11:01:59;3.90;99.90
62991;DHT22;49084;48.204;16.202;2022-11-20T11:04:42;3.90;99.90
62991;DHT22;49084;48.204;16.202;2022-11-20T11:07:25;3.80;99.90
62991;DHT22;49084;48.204;16.202;2022-11-20T11:09:54;3.80;99.90
62991;DHT22;49084;48.204;16.202;2022-11-20T11:12:25;3.90;99.90
62991;DHT22;49084;48.204;16.202;2022-11-20T11:14:54;3.90;99.90
62991;DHT22;49084;48.204;16.202;2022-11-20T11:17:29;4.10;99.90
62991;DHT22;49084;48.204;16.202;2022-11-20T11:20:15;4.20;99.90
62991;DHT22;49084;48.204;16.202;2022-11-20T11:22:52;4.30;99.90
62991;DHT22;49084;48.204;16.202;2022-11-20T11:25:35;4.40;99.90
62991;DHT22;49084;48.204;16.202;2022-11-20T11:28:04;4.30;99.90
62991;DHT22;49084;48.204;16.202;2022-11-20T11:30:44;4.20;99.90
62991;DHT22;49084;48.204;16.202;2022-11-20T11:33:12;4.20;99.90
62991;DHT22;49084;48.204;16.202;2022-11-20T11:35:51;4.20;99.90
62991;DHT22;49084;48.204;16.202;2022-11-20T11:38:40;4.10;99.90
62991;DHT22;49084;48.204;16.202;2022-11-20T11:41:09;4.20;99.90
62991;DHT22;49084;48.204;16.202;2022-11-20T11:43:38;4.30;99.90
62991;DHT22;49084;48.204;16.202;2022-11-20T11:46:26;4.50;99.90
62991;DHT22;49084;48.204;16.202;2022-11-20T11:49:15;4.80;99.90
62991;DHT22;49084;48.204;16.202;2022-11-20T12:00:10;5.90;99.90
62991;DHT22;49084;48.204;16.202;2022-11-20T12:08:24;8.30;99.90
62991;DHT22;49084;48.204;16.202;2022-11-20T12:11:03;9.00;99.90
62991;DHT22;49084;48.204;16.202;2022-11-20T12:15:59;9.50;99.90
62991;DHT22;49084;48.204;16.202;2022-11-20T12:18:26;10.00;99.90
62991;DHT22;49084;48.204;16.202;2022-11-20T12:55:50;9.70;99.90
62991;DHT22;49084;48.204;16.202;2022-11-20T13:08:02;11.90;99.90
62991;DHT22;49084;48.204;16.202;2022-11-20T13:10:39;12.10;99.90
62991;DHT22;49084;48.204;16.202;2022-11-20T13:16:09;12.50;98.90
62991;DHT22;49084;48.204;16.202;2022-11-20T13:18:39;12.20;98.60
62991;DHT22;49084;48.204;16.202;2022-11-20T13:24:29;12.10;99.90
62991;DHT22;49084;48.204;16.202;2022-11-20T13:29:43;11.50;99.90
62991;DHT22;49084;48.204;16.202;2022-11-20T13:32:17;11.30;99.90
62991;DHT22;49084;48.204;16.202;2022-11-20T13:34:55;10.70;99.90
62991;DHT22;49084;48.204;16.202;2022-11-20T13:37:34;10.00;99.90
62991;DHT22;49084;48.204;16.202;2022-11-20T13:45:41;9.10;99.90
62991;DHT22;49084;48.204;16.202;2022-11-20T13:48:21;9.00;99.90
62991;DHT22;49084;48.204;16.202;2022-11-20T14:02:34;8.10;99.90
62991;DHT22;49084;48.204;16.202;2022-11-20T14:05:01;7.80;99.90
62991;DHT22;49084;48.204;16.202;2022-11-20T14:07:35;7.70;99.90
62991;DHT22;49084;48.204;16.202;2022-11-20T14:10:02;7.60;99.90
62991;DHT22;49084;48.204;16.202;2022-11-20T14:12:30;7.50;99.90
62991;DHT22;49084;48.204;16.202;2022-11-20T14:14:57;7.50;99.90
62991;DHT22;49084;48.204;16.202;2022-11-20T14:17:34;7.30;99.90
62991;DHT22;49084;48.204;16.202;2022-11-20T14:20:12;7.30;99.90
62991;DHT22;49084;48.204;16.202;2022-11-20T14:22:47;7.20;99.90
62991;DHT22;49084;48.204;16.202;2022-11-20T14:25:21;7.20;99.90
62991;DHT22;49084;48.204;16.202;2022-11-20T14:27:53;7.10;99.90
62991;DHT22;49084;48.204;16.202;2022-11-20T14:30:23;6.80;99.90
62991;DHT22;49084;48.204;16.202;2022-11-20T14:32:51;6.70;99.90
62991;DHT22;49084;48.204;16.202;2022-11-20T14:35:35;6.60;99.90
62991;DHT22;49084;48.204;16.202;2022-11-20T14:38:03;6.40;99.90
62991;DHT22;49084;48.204;16.202;2022-11-20T14:42:56;6.10;99.90
62991;DHT22;49084;48.204;16.202;2022-11-20T14:45:23;5.90;99.90
62991;DHT22;49084;48.204;16.202;2022-11-20T14:47:51;5.80;99.90
62991;DHT22;49084;48.204;16.202;2022-11-20T14:50:27;5.70;99.90
62991;DHT22;49084;48.204;16.202;2022-11-20T14:52:56;5.50;99.90
62991;DHT22;49084;48.204;16.202;2022-11-20T14:55:37;5.30;99.90
62991;DHT22;49084;48.204;16.202;2022-11-20T14:58:06;5.20;99.90
62991;DHT22;49084;48.204;16.202;2022-11-20T15:00:34;5.00;99.90
62991;DHT22;49084;48.204;16.202;2022-11-20T15:03:00;4.90;99.90
62991;DHT22;49084;48.204;16.202;2022-11-20T15:05:45;4.80;99.90
62991;DHT22;49084;48.204;16.202;2022-11-20T15:08:12;4.60;99.90
62991;DHT22;49084;48.204;16.202;2022-11-20T15:10:39;4.40;99.90
62991;DHT22;49084;48.204;16.202;2022-11-20T15:13:15;4.30;99.90
62991;DHT22;49084;48.204;16.202;2022-11-20T15:18:24;4.10;99.90
62991;DHT22;49084;48.204;16.202;2022-11-20T15:20:54;4.00;99.90
62991;DHT22;49084;48.204;16.202;2022-11-20T15:23:21;3.90;99.90
62991;DHT22;49084;48.204;16.202;2022-11-20T15:25:48;3.80;99.90
62991;DHT22;49084;48.204;16.202;2022-11-20T15:30:49;3.60;99.90
62991;DHT22;49084;48.204;16.202;2022-11-20T15:33:16;3.50;99.90
62991;DHT22;49084;48.204;16.202;2022-11-20T15:35:43;3.50;99.90
62991;DHT22;49084;48.204;16.202;2022-11-20T15:38:09;3.40;99.90
62991;DHT22;49084;48.204;16.202;2022-11-20T15:40:35;3.40;99.90
62991;DHT22;49084;48.204;16.202;2022-11-20T15:43:01;3.30;99.90
62991;DHT22;49084;48.204;16.202;2022-11-20T15:48:19;3.20;99.90
62991;DHT22;49084;48.204;16.202;2022-11-20T15:51:02;3.20;99.90
62991;DHT22;49084;48.204;16.202;2022-11-20T15:53:29;3.20;99.90
62991;DHT22;49084;48.204;16.202;2022-11-20T15:55:55;3.20;99.90
62991;DHT22;49084;48.204;16.202;2022-11-20T15:58:21;3.10;99.90
62991;DHT22;49084;48.204;16.202;2022-11-20T16:00:49;3.10;99.90
62991;DHT22;49084;48.204;16.202;2022-11-20T16:03:16;3.00;99.90
62991;DHT22;49084;48.204;16.202;2022-11-20T16:05:44;2.90;99.90
62991;DHT22;49084;48.204;16.202;2022-11-20T16:08:10;2.80;99.90
62991;DHT22;49084;48.204;16.202;2022-11-20T16:10:38;2.80;99.90
62991;DHT22;49084;48.204;16.202;2022-11-20T16:13:11;2.70;99.90
62991;DHT22;49084;48.204;16.202;2022-11-20T16:15:58;2.70;99.90
62991;DHT22;49084;48.204;16.202;2022-11-20T16:18:26;2.70;99.90
62991;DHT22;49084;48.204;16.202;2022-11-20T16:20:54;2.60;99.90
62991;DHT22;49084;48.204;16.202;2022-11-20T16:23:21;2.50;99.90
62991;DHT22;49084;48.204;16.202;2022-11-20T16:25:48;2.50;99.90
62991;DHT22;49084;48.204;16.202;2022-11-20T16:28:15;2.50;99.90
62991;DHT22;49084;48.204;16.202;2022-11-20T16:30:41;2.50;99.90
62991;DHT22;49084;48.204;16.202;2022-11-20T16:33:16;2.50;99.90
62991;DHT22;49084;48.204;16.202;2022-11-20T16:36:13;2.40;99.90
62991;DHT22;49084;48.204;16.202;2022-11-20T16:38:40;2.40;99.90
62991;DHT22;49084;48.204;16.202;2022-11-20T16:41:07;2.50;99.90
62991;DHT22;49084;48.204;16.202;2022-11-20T16:43:50;2.50;99.90
62991;DHT22;49084;48.204;16.202;2022-11-20T16:46:18;2.50;99.90
62991;DHT22;49084;48.204;16.202;2022-11-20T16:48:44;2.50;99.90
62991;DHT22;49084;48.204;16.202;2022-11-20T16:51:12;2.50;99.90
62991;DHT22;49084;48.204;16.202;2022-11-20T16:53:39;2.40;99.90
62991;DHT22;49084;48.204;16.202;2022-11-20T16:58:57;2.40;99.90
62991;DHT22;49084;48.204;16.202;2022-11-20T17:01:26;2.30;99.90
62991;DHT22;49084;48.204;16.202;2022-11-20T17:04:01;2.30;99.90
62991;DHT22;49084;48.204;16.202;2022-11-20T17:06:31;2.20;99.90
62991;DHT22;49084;48.204;16.202;2022-11-20T17:08:57;2.30;99.90
62991;DHT22;49084;48.204;16.202;2022-11-20T17:11:24;2.30;99.90
62991;DHT22;49084;48.204;16.202;2022-11-20T17:13:54;2.30;99.90
62991;DHT22;49084;48.204;16.202;2022-11-20T17:16:26;2.20;99.90
62991;DHT22;49084;48.204;16.202;2022-11-20T17:18:57;2.10;99.90
62991;DHT22;49084;48.204;16.202;2022-11-20T17:21:24;2.10;99.90
62991;DHT22;49084;48.204;16.202;2022-11-20T17:23:51;2.10;99.90
62991;DHT22;49084;48.204;16.202;2022-11-20T17:26:22;2.10;99.90
62991;DHT22;49084;48.204;16.202;2022-11-20T17:28:55;2.10;99.90
62991;DHT22;49084;48.204;16.202;2022-11-20T17:31:22;2.20;99.90
62991;DHT22;49084;48.204;16.202;2022-11-20T17:33:49;2.20;99.90
62991;DHT22;49084;48.204;16.202;2022-11-20T17:36:16;2.20;99.90
62991;DHT22;49084;48.204;16.202;2022-11-20T17:38:43;2.30;99.90
62991;DHT22;49084;48.204;16.202;2022-11-20T17:41:14;2.20;99.90
62991;DHT22;49084;48.204;16.202;2022-11-20T17:43:42;2.30;99.90
62991;DHT22;49084;48.204;16.202;2022-11-20T17:46:19;2.30;99.90
62991;DHT22;49084;48.204;16.202;2022-11-20T17:48:47;2.30;99.90
62991;DHT22;49084;48.204;16.202;2022-11-20T17:51:17;2.30;99.90
62991;DHT22;49084;48.204;16.202;2022-11-20T17:53:45;2.30;99.90
62991;DHT22;49084;48.204;16.202;2022-11-20T17:56:39;2.30;99.90
62991;DHT22;49084;48.204;16.202;2022-11-20T17:59:24;2.30;99.90
62991;DHT22;49084;48.204;16.202;2022-11-20T18:05:01;2.40;99.90
62991;DHT22;49084;48.204;16.202;2022-11-20T18:07:27;2.40;99.90
62991;DHT22;49084;48.204;16.202;2022-11-20T18:09:53;2.40;99.90
62991;DHT22;49084;48.204;16.202;2022-11-20T18:12:19;2.40;99.90
62991;DHT22;49084;48.204;16.202;2022-11-20T18:14:46;2.40;99.90
62991;DHT22;49084;48.204;16.202;2022-11-20T18:17:13;2.40;99.90
62991;DHT22;49084;48.204;16.202;2022-11-20T18:19:42;2.50;99.90
62991;DHT22;49084;48.204;16.202;2022-11-20T18:22:11;2.50;99.90
62991;DHT22;49084;48.204;16.202;2022-11-20T18:24:38;2.50;99.90
62991;DHT22;49084;48.204;16.202;2022-11-20T18:27:06;2.50;99.90
62991;DHT22;49084;48.204;16.202;2022-11-20T18:29:33;2.40;99.90
62991;DHT22;49084;48.204;16.202;2022-11-20T18:31:59;2.40;99.90
62991;DHT22;49084;48.204;16.202;2022-11-20T18:34:25;2.40;99.90
62991;DHT22;49084;48.204;16.202;2022-11-20T18:36:52;2.40;99.90
62991;DHT22;49084;48.204;16.202;2022-11-20T18:39:18;2.40;99.90
62991;DHT22;49084;48.204;16.202;2022-11-20T18:41:44;2.30;99.90
62991;DHT22;49084;48.204;16.202;2022-11-20T18:44:30;2.30;99.90
62991;DHT22;49084;48.204;16.202;2022-11-20T18:47:20;2.40;99.90
62991;DHT22;49084;48.204;16.202;2022-11-20T18:49:49;2.40;99.90
62991;DHT22;49084;48.204;16.202;2022-11-20T18:52:26;2.40;99.90
62991;DHT22;49084;48.204;16.202;2022-11-20T18:54:53;2.40;99.90
62991;DHT22;49084;48.204;16.202;2022-11-20T18:57:23;2.40;99.90
62991;DHT22;49084;48.204;16.202;2022-11-20T18:59:49;2.40;99.90
62991;DHT22;49084;48.204;16.202;2022-11-20T19:02:18;2.40;99.90
62991;DHT22;49084;48.204;16.202;2022-11-20T19:04:45;2.40;99.90